x

Portland 12 Nm Southeast Of Portland,me (44007) Wave Buoy

5:50pm - Sun 4th Dec 2016 All times are EST. -5 hours from GMT.

  • Sig Wave height 2.0ft
  • Swell Direction
  • Peak Period 3s
  • Average Period 3s
  • Wind
    22mph, 27mph gusts
  • Sea Temp 49°f
  • 空気 Temp 37°f
  • Sea Pressure 1021.4mb
  • Portland 12 Nm Southeast Of Portland,me
  • Portland 12 Nm Southeast Of Portland,me

More Historic Weather Station data

Upgrade to MSW Pro to gain access to the past 30 days of data for over 8000 Wavebouys and Weather Stations around the globe.

Join Pro

Comparision Forecast

View Surf forecast
   
Sun 12/04 5:50pm 2ft 3s 3s 22 27 mph 1021.4mb 49f 37f
4:50pm 1.6ft 3s 3s 20 22 mph 1021.2mb 49f 38f
3:50pm 2ft 3s 3s 16 20 mph 1020.8mb 49f 40f
2:50pm 1.6ft 3s 3s 20 27 mph 1019.8mb 49f 40f
1:50pm 1.6ft 3s 3s 20 25 mph 1019.2mb 49f 40f
11:50am 1.3ft 3s 3s 16 20 mph 1020mb 49f 38f
10:50am 1.3ft 3s 3s 18 22 mph 1020.2mb 49f 37f
9:50am 1.3ft 9s 3s 18 22 mph 1020.5mb 49f 36f
8:50am 1.3ft 3s 3s 16 20 mph 1020.5mb 49f 35f
7:50am 1.6ft 3s 3s 18 22 mph 1020.3mb 49f 35f
6:50am 1.6ft 3s 3s 18 22 mph 1019.6mb 49f 35f
5:50am 2ft 3s 3s 20 25 mph 1019.2mb 49f 35f
4:50am 2ft 3s 3s 16 22 mph 1018.7mb 49f 36f
3:50am 2.5ft 3s 3s 20 27 mph 1018.2mb 49f 36f
2:50am 2.5ft 3s 3s 22 29 mph 1017.6mb 49f 37f
1:50am 2ft 3s 3s 22 29 mph 1017.1mb 49f 37f
12:50am 1.6ft 3s 3s 22 29 mph 1016.4mb 49f 38f
Sat 12/03 11:50pm 1.6ft 3s 3s 20 27 mph 1016mb 49f 38f
10:50pm 2ft 3s 3s 20 22 mph 1015.9mb 49f 38f
9:50pm 2ft 3s 3s 25 31 mph 1015.3mb 49f 38f
8:50pm 1.6ft 3s 3s 20 25 mph 1015.6mb 49f 38f
6:50pm 1.6ft 3s 3s 20 25 mph 1014.2mb 49f 39f
5:50pm 1.6ft 3s 3s 25 29 mph 1013.1mb 49f 40f
4:50pm 2ft 3s 3s 22 25 mph 1012.1mb 49f 41f
3:50pm 2ft 3s 3s 27 31 mph 1010.6mb 49f 42f
2:50pm 2ft 3s 3s 22 27 mph 1010mb 48f 43f
1:50pm 2ft 3s 3s 22 29 mph 1009.2mb 48f 43f
12:50pm 2.5ft 3s 3s 25 29 mph 1008.8mb 48f 43f
11:50am 2ft 3s 3s 25 34 mph 1008.4mb 48f 43f
10:50am 2ft 3s 3s 20 25 mph 1008.5mb 48f 43f
9:50am 1.6ft 10s 3s 20 27 mph 1008.4mb 48f 42f
8:50am 1.6ft 3s 3s 18 22 mph 1008mb 48f 40f
7:50am 1.6ft 10s 4s 20 25 mph 1007.4mb 48f 40f
6:50am 1.6ft 9s 4s 18 20 mph 1006.9mb 48f 39f
5:50am 2ft 10s 4s 16 18 mph 1006.2mb 48f 39f
4:50am 2ft 9s 4s 16 18 mph 1005.6mb 48f 40f
3:50am 2ft 9s 4s 18 22 mph 1005.2mb 48f 40f
2:50am 2ft 10s 4s 18 22 mph 1005mb 48f 40f
1:50am 2ft 9s 4s 18 22 mph 1004.9mb 48f 41f
12:50am 2ft 10s 4s 20 25 mph 1004.3mb 48f 42f
Fri 12/02 11:50pm 2.5ft 10s 4s 16 20 mph 1004.2mb 48f 42f
10:50pm 2.5ft 9s 4s 11 13 mph 1004.3mb 49f 42f
9:50pm 2.5ft 9s 4s 18 22 mph 1003.7mb 49f 45f
8:50pm 2.5ft 9s 4s 20 25 mph 1003.7mb 49f 45f
7:50pm 2.5ft 9s 4s 22 25 mph 1004.1mb 48f 46f
6:50pm 2.5ft 9s 4s 20 27 mph 1004.2mb 49f 47f
5:50pm 2.5ft 9s 5s 22 27 mph 1004.2mb 48f 47f
4:50pm 2.5ft 10s 4s 16 18 mph 1004.6mb 49f 48f
3:50pm 2.5ft 10s 5s 20 22 mph 1003.9mb 49f 49f
2:50pm 2.5ft 10s 5s 20 22 mph 1003.9mb 48f 49f
1:50pm 2.5ft 10s 5s 13 18 mph 1003.9mb 48f 49f
12:50pm 2.5ft 10s 5s 18 22 mph 1003.8mb 48f 48f
11:50am 2.5ft 10s 5s 16 20 mph 1004.3mb 48f 47f
10:50am 2.5ft 11s 5s 11 16 mph 1005mb 48f 47f
9:50am 3ft 10s 5s 11 16 mph 1005.9mb 48f 44f
8:50am 3.5ft 10s 5s 13 16 mph 1005.8mb 48f 43f
7:50am 3.5ft 10s 5s 13 16 mph 1005.9mb 48f 42f
6:50am 3.5ft 9s 5s 16 18 mph 1005.5mb 48f 42f
5:50am 3ft 10s 5s 13 18 mph 1005.2mb 48f 43f
4:50am 3.5ft 9s 5s 16 20 mph 1003.9mb 48f 43f
3:50am 3ft 10s 5s 18 22 mph 1003.6mb 48f 44f
2:50am 3.5ft 10s 5s 18 22 mph 1003.3mb 49f 44f
1:50am 3.5ft 9s 5s 20 25 mph 1002.7mb 50f 45f
12:50am 3.5ft 9s 5s 20 25 mph 1001.7mb 50f 45f
Thu 12/01 11:50pm 3.5ft 8s 5s 20 25 mph 1001.3mb 50f 45f
10:50pm 4ft 8s 5s 25 29 mph 1000.7mb 50f 46f
9:50pm 3.5ft 8s 5s 25 29 mph 1000mb 50f 46f
8:50pm 4.5ft 9s 5s 22 27 mph 999.5mb 50f 47f
7:50pm 4.5ft 9s 6s 20 25 mph 999.4mb 50f 47f
6:50pm 5ft 9s 6s 22 25 mph 999mb 50f 48f
5:50pm 5ft 9s 6s 20 25 mph 998.7mb 50f 49f
4:50pm 5.5ft 9s 7s 20 25 mph 997.9mb 51f 50f
3:50pm 5ft 9s 8s 11 16 mph 997.4mb 51f 50f
2:50pm 5.5ft 10s 8s 2 4 mph 997mb 51f 48f
1:50pm 7ft 9s 8s 4 7 mph 996.6mb 51f 47f
11:50am 7ft 8s 7s 18 25 mph 995.8mb 51f 44f
10:50am 9ft 8s 7s 20 27 mph 995.4mb 51f 44f
9:50am 10ft 9s 7s 20 27 mph 994.5mb 51f 45f
8:50am 10.5ft 8s 7s 25 29 mph 992.6mb 51f 47f
7:50am 12ft 8s 7s 13 18 mph 991.8mb 51f 52f
6:50am 11.5ft 8s 6s 22 27 mph 994mb 51f 51f
5:50am 10ft 7s 6s 31 47 mph 995.4mb 51f 50f
4:50am 8ft 7s 5s 31 38 mph 997.4mb 51f 49f
3:50am 7ft 7s 5s 29 36 mph 1000.4mb 51f 49f
2:50am 6.5ft 7s 5s 22 27 mph 1004.9mb 51f 48f
1:50am 6.5ft 6s 5s 20 25 mph 1007.3mb 51f 48f
12:50am 6.5ft 6s 5s 25 31 mph 1007.1mb 51f 48f